createdAt,value
2022-12-07T00:01:46.437Z,100736.19
2022-12-07T00:04:16.421Z,100733.38
2022-12-07T00:06:46.258Z,100739.84
2022-12-07T00:09:16.543Z,100749.94
2022-12-07T00:11:47.611Z,100745.06
2022-12-07T00:14:17.191Z,100747.28
2022-12-07T00:16:46.035Z,100743.25
2022-12-07T00:19:15.130Z,100735.75
2022-12-07T00:21:43.833Z,100744.84
2022-12-07T00:24:13.506Z,100744.63
2022-12-07T00:26:43.189Z,100728.63
2022-12-07T00:29:16.950Z,100731.66
2022-12-07T00:31:45.485Z,100730.88
2022-12-07T00:34:16.036Z,100725.22
2022-12-07T00:36:44.266Z,100720.75
2022-12-07T00:39:12.397Z,100711.69
2022-12-07T00:41:40.706Z,100713.91
2022-12-07T00:44:08.614Z,100716.53
2022-12-07T00:46:38.108Z,100713.47
2022-12-07T00:49:06.070Z,100724.00
2022-12-07T00:51:34.220Z,100720.38
2022-12-07T00:54:02.145Z,100716.94
2022-12-07T00:56:31.361Z,100717.13
2022-12-07T00:59:00.496Z,100717.56
2022-12-07T01:01:31.256Z,100714.31
2022-12-07T01:04:02.021Z,100723.25
2022-12-07T01:06:30.906Z,100725.25
2022-12-07T01:08:58.925Z,100726.09
2022-12-07T01:11:29.456Z,100722.91
2022-12-07T01:13:59.580Z,100731.00
2022-12-07T01:16:29.836Z,100727.75
2022-12-07T01:18:59.920Z,100726.94
2022-12-07T01:21:30.183Z,100731.78
2022-12-07T01:23:59.317Z,100729.16
2022-12-07T01:26:28.276Z,100731.56
2022-12-07T01:28:56.732Z,100732.00
2022-12-07T01:31:26.968Z,100729.38
2022-12-07T01:33:56.320Z,100717.88
2022-12-07T01:36:27.507Z,100721.50
2022-12-07T01:38:57.862Z,100716.66
2022-12-07T01:41:27.227Z,100720.91
2022-12-07T01:44:19.589Z,100721.91
2022-12-07T01:46:48.860Z,100708.78
2022-12-07T01:49:21.103Z,100710.41
2022-12-07T01:51:51.391Z,100724.13
2022-12-07T01:54:19.910Z,100721.31
2022-12-07T01:56:51.408Z,100720.88
2022-12-07T01:59:20.286Z,100723.72
2022-12-07T02:01:48.650Z,100724.13
2022-12-07T02:04:17.218Z,100728.38
2022-12-07T02:06:46.638Z,100716.84
2022-12-07T02:09:16.225Z,100721.28
2022-12-07T02:11:44.414Z,100717.66
2022-12-07T02:14:12.417Z,100718.25
2022-12-07T02:16:48.167Z,100712.00
2022-12-07T02:19:40.341Z,100709.38
2022-12-07T02:22:32.172Z,100706.34
2022-12-07T02:25:08.384Z,100698.28
2022-12-07T02:27:45.332Z,100702.34
2022-12-07T02:30:15.520Z,100691.63
2022-12-07T02:32:48.320Z,100685.78
2022-12-07T02:35:21.187Z,100688.59
2022-12-07T02:37:57.895Z,100676.06
2022-12-07T02:40:30.256Z,100674.06
2022-12-07T02:43:03.413Z,100684.38
2022-12-07T02:45:33.349Z,100696.28
2022-12-07T02:48:02.271Z,100704.94
2022-12-07T02:50:30.397Z,100706.19
2022-12-07T02:52:58.598Z,100704.78
2022-12-07T02:55:31.211Z,100700.72
2022-12-07T02:58:19.042Z,100699.31
2022-12-07T03:00:54.410Z,100713.25
2022-12-07T03:03:22.719Z,100704.78
2022-12-07T03:06:08.396Z,100705.78
2022-12-07T03:08:48.022Z,100697.47
2022-12-07T03:11:21.867Z,100691.63
2022-12-07T03:13:53.192Z,100697.88
2022-12-07T03:16:25.026Z,100693.84
2022-12-07T03:18:55.825Z,100690.19
2022-12-07T03:21:27.926Z,100687.34
2022-12-07T03:23:59.132Z,100672.84
2022-12-07T03:26:32.393Z,100674.00
2022-12-07T03:29:02.794Z,100686.16
2022-12-07T03:31:34.058Z,100680.72
2022-12-07T03:34:08.536Z,100668.97
2022-12-07T03:36:41.489Z,100665.38
2022-12-07T03:39:15.865Z,100663.53
2022-12-07T03:41:45.501Z,100668.78
2022-12-07T03:44:14.732Z,100659.91
2022-12-07T03:46:47.111Z,100651.00
2022-12-07T03:49:20.666Z,100652.22
2022-12-07T03:51:51.426Z,100653.84
2022-12-07T03:54:21.965Z,100657.88
2022-12-07T03:56:50.688Z,100655.25
2022-12-07T03:59:19.612Z,100663.53
2022-12-07T04:01:54.817Z,100663.53
2022-12-07T04:04:23.257Z,100660.28
2022-12-07T04:06:51.170Z,100659.09
2022-12-07T04:09:19.790Z,100655.03
2022-12-07T04:11:47.705Z,100666.34
2022-12-07T04:14:21.565Z,100661.09
2022-12-07T04:16:52.777Z,100652.63
2022-12-07T04:19:22.303Z,100653.84
2022-12-07T04:21:50.423Z,100652.22
2022-12-07T04:24:18.399Z,100646.19
2022-12-07T04:26:47.310Z,100640.13
2022-12-07T04:29:16.012Z,100642.16
2022-12-07T04:31:44.868Z,100640.97
2022-12-07T04:34:15.209Z,100647.03
2022-12-07T04:36:44.243Z,100642.97
2022-12-07T04:39:20.772Z,100650.66
2022-12-07T04:41:49.041Z,100653.47
2022-12-07T04:44:17.649Z,100646.41
2022-12-07T04:46:46.088Z,100653.88
2022-12-07T04:49:16.149Z,100656.31
2022-12-07T04:51:44.529Z,100666.19
2022-12-07T04:54:12.625Z,100662.38
2022-12-07T04:56:40.886Z,100674.47
2022-12-07T04:59:09.257Z,100671.84
2022-12-07T05:01:37.460Z,100665.97
2022-12-07T05:04:05.689Z,100654.69
2022-12-07T05:06:35.266Z,100652.06
2022-12-07T05:09:03.236Z,100647.03
2022-12-07T05:11:40.361Z,100644.19
2022-12-07T05:14:11.309Z,100647.03
2022-12-07T05:16:40.107Z,100642.16
2022-12-07T05:19:08.818Z,100638.53
2022-12-07T05:21:38.389Z,100636.91
2022-12-07T05:24:07.452Z,100638.53
2022-12-07T05:26:35.724Z,100649.81
2022-12-07T05:29:03.761Z,100648.63
2022-12-07T05:31:32.357Z,100640.97
2022-12-07T05:34:00.381Z,100635.31
2022-12-07T05:36:29.581Z,100651.47
2022-12-07T05:38:59.049Z,100651.25
2022-12-07T05:41:45.153Z,100647.59
2022-12-07T05:44:13.067Z,100648.81
2022-12-07T05:46:41.295Z,100651.63
2022-12-07T05:49:09.197Z,100651.81
2022-12-07T05:51:37.346Z,100649.38
2022-12-07T05:54:06.644Z,100652.59
2022-12-07T05:56:34.797Z,100648.97
2022-12-07T05:59:20.567Z,100653.38
2022-12-07T06:01:48.855Z,100649.34
2022-12-07T06:04:16.793Z,100650.53
2022-12-07T06:06:45.065Z,100650.13
2022-12-07T06:09:14.752Z,100655.97
2022-12-07T06:12:00.309Z,100648.09
2022-12-07T06:14:28.205Z,100656.59
2022-12-07T06:16:56.731Z,100652.94
2022-12-07T06:19:24.695Z,100652.94
2022-12-07T06:21:53.292Z,100649.72
2022-12-07T06:24:23.089Z,100651.97
2022-12-07T06:26:51.521Z,100653.75
2022-12-07T06:29:20.111Z,100650.13
2022-12-07T06:31:48.321Z,100645.69
2022-12-07T06:34:18.530Z,100649.13
2022-12-07T06:36:51.928Z,100655.38
2022-12-07T06:39:22.141Z,100652.16
2022-12-07T06:41:53.604Z,100658.41
2022-12-07T06:44:22.597Z,100659.84
2022-12-07T06:46:51.355Z,100662.50
2022-12-07T06:49:19.737Z,100652.97
2022-12-07T06:51:47.967Z,100661.88
2022-12-07T06:54:16.986Z,100659.66
2022-12-07T06:56:46.538Z,100657.03
2022-12-07T06:59:14.683Z,100658.63
2022-12-07T07:01:42.878Z,100658.63
2022-12-07T07:04:10.811Z,100663.06
2022-12-07T07:06:39.018Z,100661.28
2022-12-07T07:09:07.036Z,100660.44
2022-12-07T07:11:35.141Z,100668.34
2022-12-07T07:14:04.463Z,100664.31
2022-12-07T07:16:32.750Z,100670.38
2022-12-07T07:19:00.952Z,100666.31
2022-12-07T07:21:29.120Z,100669.16
2022-12-07T07:23:57.996Z,100671.34
2022-12-07T07:26:26.944Z,100680.47
2022-12-07T07:28:54.889Z,100669.53
2022-12-07T07:31:24.615Z,100672.78
2022-12-07T07:33:52.569Z,100669.13
2022-12-07T07:36:20.867Z,100671.53
2022-12-07T07:38:48.727Z,100670.75
2022-12-07T07:41:17.124Z,100678.44
2022-12-07T07:43:45.080Z,100674.38
2022-12-07T07:46:13.210Z,100677.59
2022-12-07T07:48:42.434Z,100680.03
2022-12-07T07:51:10.654Z,100684.47
2022-12-07T07:53:38.581Z,100682.66
2022-12-07T07:56:06.781Z,100687.94
2022-12-07T07:58:34.673Z,100686.91
2022-12-07T08:01:06.309Z,100686.91
2022-12-07T08:03:34.297Z,100687.50
2022-12-07T08:06:05.317Z,100694.19
2022-12-07T08:08:33.702Z,100692.97
2022-12-07T08:11:02.427Z,100696.19
2022-12-07T08:13:31.479Z,100697.19
2022-12-07T08:16:00.047Z,100695.78
2022-12-07T08:18:28.055Z,100700.22
2022-12-07T08:21:01.010Z,100700.44
2022-12-07T08:23:37.645Z,100699.44
2022-12-07T08:26:09.877Z,100701.47
2022-12-07T08:28:38.080Z,100697.84
2022-12-07T08:31:08.257Z,100703.69
2022-12-07T08:33:36.731Z,100696.00
2022-12-07T08:36:07.093Z,100700.22
2022-12-07T08:38:37.506Z,100696.19
2022-12-07T08:41:06.370Z,100698.22
2022-12-07T08:43:34.945Z,100703.06
2022-12-07T08:46:08.944Z,100694.22
2022-12-07T08:48:39.822Z,100696.22
2022-12-07T08:51:08.047Z,100702.88
2022-12-07T08:53:37.839Z,100698.84
2022-12-07T08:56:07.324Z,100699.47
2022-12-07T08:58:36.312Z,100698.22
2022-12-07T09:01:04.909Z,100690.97
2022-12-07T09:03:32.907Z,100698.03
2022-12-07T09:06:01.281Z,100699.63
2022-12-07T09:08:34.892Z,100704.06
2022-12-07T09:11:04.785Z,100705.50
2022-12-07T09:13:32.873Z,100698.22
2022-12-07T09:16:01.165Z,100705.09
2022-12-07T09:18:29.214Z,100702.66
2022-12-07T09:20:58.154Z,100707.56
2022-12-07T09:23:26.219Z,100709.59
2022-12-07T09:25:54.422Z,100710.78
2022-12-07T09:28:23.704Z,100705.13
2022-12-07T09:33:39.790Z,100710.19
2022-12-07T09:36:08.592Z,100709.38
2022-12-07T09:38:36.515Z,100715.22
2022-12-07T09:41:07.868Z,100707.13
2022-12-07T09:43:37.921Z,100705.06
2022-12-07T09:46:06.496Z,100710.28
2022-12-07T09:48:37.464Z,100702.03
2022-12-07T09:51:22.510Z,100705.84
2022-12-07T09:53:52.554Z,100703.19
2022-12-07T09:56:22.260Z,100692.06
2022-12-07T09:58:52.405Z,100694.91
2022-12-07T10:01:22.742Z,100686.78
2022-12-07T10:03:52.444Z,100687.59
2022-12-07T10:06:21.388Z,100689.78
2022-12-07T10:08:49.327Z,100685.53
2022-12-07T10:11:17.561Z,100684.91
2022-12-07T10:13:49.593Z,100678.22
2022-12-07T10:16:37.510Z,100674.91
2022-12-07T10:19:25.923Z,100683.72
2022-12-07T10:22:11.936Z,100680.44
2022-12-07T10:24:41.884Z,100679.16
2022-12-07T10:27:20.596Z,100672.44
2022-12-07T10:29:50.863Z,100668.94
2022-12-07T10:32:33.814Z,100669.97
2022-12-07T10:35:24.940Z,100669.78
2022-12-07T10:37:53.757Z,100667.53
2022-12-07T10:40:28.234Z,100662.44
2022-12-07T10:43:04.584Z,100661.16
2022-12-07T10:45:35.715Z,100651.84
2022-12-07T10:48:15.958Z,100655.03
2022-12-07T10:50:54.881Z,100651.75
2022-12-07T10:53:38.392Z,100657.75
2022-12-07T10:56:24.104Z,100648.84
2022-12-07T10:59:03.635Z,100653.34
2022-12-07T11:01:34.996Z,100652.47
2022-12-07T11:04:22.094Z,100648.25
2022-12-07T11:06:55.889Z,100642.78
2022-12-07T11:10:07.284Z,100649.28
2022-12-07T11:12:40.387Z,100633.91
2022-12-07T11:15:16.053Z,100634.66
2022-12-07T11:17:50.108Z,100626.34
2022-12-07T11:20:32.181Z,100625.69
2022-12-07T11:23:05.577Z,100624.47
2022-12-07T11:25:36.772Z,100621.63
2022-12-07T11:28:14.061Z,100624.03
2022-12-07T11:30:47.663Z,100624.84
2022-12-07T11:33:21.589Z,100614.09
2022-12-07T11:36:03.167Z,100620.97
2022-12-07T11:38:39.731Z,100617.91
2022-12-07T11:41:17.271Z,100614.63
2022-12-07T11:43:55.779Z,100611.34
2022-12-07T11:46:27.057Z,100609.88
2022-12-07T11:49:01.432Z,100602.13
2022-12-07T11:51:33.806Z,100602.28
2022-12-07T11:54:05.368Z,100598.66
2022-12-07T11:56:37.884Z,100590.31
2022-12-07T11:59:12.217Z,100589.28
2022-12-07T12:01:53.751Z,100592.72
2022-12-07T12:04:31.241Z,100593.97
2022-12-07T12:09:53.581Z,100587.69
2022-12-07T12:15:42.770Z,100578.91
2022-12-07T12:18:38.629Z,100576.28
2022-12-07T12:21:09.247Z,100578.06
2022-12-07T12:23:42.865Z,100568.03
2022-12-07T12:26:18.629Z,100559.81
2022-12-07T12:28:54.254Z,100555.56
2022-12-07T12:31:38.045Z,100563.72
2022-12-07T12:34:22.017Z,100561.28
2022-12-07T12:36:50.103Z,100556.44
2022-12-07T12:39:21.756Z,100553.97
2022-12-07T12:42:10.075Z,100554.75
2022-12-07T12:44:42.827Z,100550.72
2022-12-07T12:47:46.932Z,100548.03
2022-12-07T12:50:20.352Z,100548.31
2022-12-07T12:52:56.881Z,100549.63
2022-12-07T12:55:51.291Z,100543.50
2022-12-07T12:58:44.465Z,100544.28
2022-12-07T13:01:46.027Z,100545.38
2022-12-07T13:04:42.055Z,100541.56
2022-12-07T13:07:15.502Z,100531.03
2022-12-07T13:09:46.068Z,100535.16
2022-12-07T13:12:18.258Z,100539.22
2022-12-07T13:14:57.859Z,100539.66
2022-12-07T13:17:57.813Z,100520.63
2022-12-07T13:20:49.422Z,100527.16
2022-12-07T13:23:22.932Z,100513.63
2022-12-07T13:25:56.621Z,100508.34
2022-12-07T13:28:39.922Z,100516.25
2022-12-07T13:31:17.911Z,100509.78
2022-12-07T13:33:47.205Z,100501.34
2022-12-07T13:36:21.208Z,100502.94
2022-12-07T13:38:55.039Z,100509.78
2022-12-07T13:41:24.436Z,100511.44
2022-12-07T13:43:57.890Z,100504.13
2022-12-07T13:46:29.081Z,100506.16
2022-12-07T13:48:57.886Z,100501.72
2022-12-07T13:51:27.499Z,100502.88
2022-12-07T13:53:57.306Z,100505.28
2022-12-07T13:56:30.791Z,100500.00
2022-12-07T13:59:00.545Z,100496.38
2022-12-07T14:01:28.839Z,100493.75
2022-12-07T14:03:57.067Z,100489.03
2022-12-07T14:06:27.813Z,100495.50
2022-12-07T14:09:09.805Z,100493.88
2022-12-07T14:11:38.032Z,100486.13
2022-12-07T14:14:07.854Z,100493.00
2022-12-07T14:16:37.583Z,100497.47
2022-12-07T14:19:07.873Z,100506.78
2022-12-07T14:21:36.695Z,100498.72
2022-12-07T14:24:12.105Z,100498.72
2022-12-07T14:26:41.200Z,100493.09
2022-12-07T14:29:31.354Z,100497.53
2022-12-07T14:31:59.755Z,100501.19
2022-12-07T14:34:27.974Z,100510.31
2022-12-07T14:36:55.902Z,100507.31
2022-12-07T14:39:24.060Z,100506.53
2022-12-07T14:41:52.311Z,100503.53
2022-12-07T14:44:24.121Z,100495.03
2022-12-07T14:49:43.728Z,100501.78
2022-12-07T14:55:04.487Z,100490.50
2022-12-07T14:57:32.652Z,100496.19
2022-12-07T15:00:00.861Z,100488.09
2022-12-07T15:02:30.217Z,100501.91
2022-12-07T15:04:58.560Z,100487.34
2022-12-07T15:07:27.431Z,100483.72
2022-12-07T15:09:55.931Z,100487.84
2022-12-07T15:12:25.622Z,100482.94
2022-12-07T15:14:53.822Z,100489.38
2022-12-07T15:17:31.172Z,100490.19
2022-12-07T15:20:01.620Z,100486.97
2022-12-07T15:22:36.618Z,100489.59
2022-12-07T15:25:07.426Z,100488.66
2022-12-07T15:27:35.616Z,100481.31
2022-12-07T15:30:05.057Z,100488.28
2022-12-07T15:32:33.012Z,100487.22
2022-12-07T15:35:03.025Z,100486.63
2022-12-07T15:37:31.365Z,100485.47
2022-12-07T15:40:04.074Z,100479.03
2022-12-07T15:42:35.205Z,100474.56
2022-12-07T15:45:06.131Z,100477.84
2022-12-07T15:47:54.949Z,100472.16
2022-12-07T15:50:26.746Z,100476.59
2022-12-07T15:52:54.609Z,100468.72
2022-12-07T15:55:22.758Z,100465.72
2022-12-07T15:57:50.855Z,100465.72
2022-12-07T16:00:20.414Z,100461.03
2022-12-07T16:02:48.393Z,100458.84
2022-12-07T16:05:16.592Z,100454.19
2022-12-07T16:07:47.783Z,100460.88
2022-12-07T16:10:16.260Z,100456.06
2022-12-07T16:12:44.211Z,100447.63
2022-12-07T16:15:12.559Z,100450.03
2022-12-07T16:17:40.515Z,100450.03
2022-12-07T16:20:10.014Z,100453.69
2022-12-07T16:22:37.966Z,100451.50
2022-12-07T16:25:08.073Z,100446.06
2022-12-07T16:27:36.628Z,100446.06
2022-12-07T16:30:05.496Z,100444.84
2022-12-07T16:32:33.490Z,100444.28
2022-12-07T16:35:02.211Z,100445.28
2022-12-07T16:37:30.382Z,100443.09
2022-12-07T16:39:58.579Z,100450.97
2022-12-07T16:42:28.375Z,100442.94
2022-12-07T16:44:56.565Z,100444.97
2022-12-07T16:47:24.514Z,100441.34
2022-12-07T16:49:53.002Z,100432.41
2022-12-07T16:52:21.771Z,100437.88
2022-12-07T16:54:50.933Z,100446.59
2022-12-07T16:57:22.981Z,100440.13
2022-12-07T16:59:53.522Z,100438.53
2022-12-07T17:02:21.762Z,100444.22
2022-12-07T17:04:50.082Z,100438.16
2022-12-07T17:07:17.957Z,100441.00
2022-12-07T17:09:47.136Z,100441.00
2022-12-07T17:12:15.085Z,100442.59
2022-12-07T17:15:01.432Z,100443.63
2022-12-07T17:17:33.131Z,100432.50
2022-12-07T17:20:01.374Z,100432.50
2022-12-07T17:22:29.552Z,100440.41
2022-12-07T17:24:57.886Z,100431.50
2022-12-07T17:27:25.773Z,100430.25
2022-12-07T17:29:54.254Z,100433.28
2022-12-07T17:32:22.277Z,100434.88
2022-12-07T17:34:51.761Z,100430.06
2022-12-07T17:37:19.664Z,100434.50
2022-12-07T17:39:47.764Z,100428.88
2022-12-07T17:42:33.606Z,100435.75
2022-12-07T17:45:02.168Z,100434.19
2022-12-07T17:47:30.456Z,100421.66
2022-12-07T17:50:05.075Z,100419.63
2022-12-07T17:52:53.289Z,100421.22
2022-12-07T17:55:21.452Z,100419.19
2022-12-07T17:57:49.477Z,100420.44
2022-12-07T18:00:18.630Z,100425.06
2022-12-07T18:02:46.726Z,100426.03
2022-12-07T18:05:16.303Z,100421.53
2022-12-07T18:07:44.279Z,100426.72
2022-12-07T18:10:12.684Z,100425.88
2022-12-07T18:12:41.328Z,100423.41
2022-12-07T18:15:10.329Z,100423.00
2022-12-07T18:17:38.277Z,100416.09
2022-12-07T18:20:08.141Z,100421.34
2022-12-07T18:22:37.551Z,100417.34
2022-12-07T18:25:06.654Z,100418.34
2022-12-07T18:27:34.776Z,100413.75
2022-12-07T18:30:03.224Z,100417.41
2022-12-07T18:32:31.130Z,100409.72
2022-12-07T18:34:59.736Z,100402.06
2022-12-07T18:37:28.355Z,100403.66
2022-12-07T18:39:59.198Z,100407.59
2022-12-07T18:42:27.145Z,100404.78
2022-12-07T18:44:55.292Z,100410.50
2022-12-07T18:47:23.476Z,100424.47
2022-12-07T18:49:52.061Z,100424.47
2022-12-07T18:52:20.071Z,100419.41
2022-12-07T18:54:48.429Z,100419.19
2022-12-07T18:57:17.864Z,100422.03
2022-12-07T18:59:49.664Z,100417.19
2022-12-07T19:02:19.010Z,100409.88
2022-12-07T19:04:47.516Z,100409.47
2022-12-07T19:07:15.543Z,100407.84
2022-12-07T19:09:43.751Z,100406.81
2022-12-07T19:12:13.003Z,100405.78
2022-12-07T19:14:42.785Z,100408.63
2022-12-07T19:17:12.625Z,100405.06
2022-12-07T19:19:42.687Z,100403.22
2022-12-07T19:22:14.873Z,100399.38
2022-12-07T19:24:46.276Z,100388.03
2022-12-07T19:27:15.281Z,100388.88
2022-12-07T19:29:45.038Z,100390.88
2022-12-07T19:32:13.366Z,100390.88
2022-12-07T19:34:43.114Z,100391.31
2022-12-07T19:37:12.070Z,100394.94
2022-12-07T19:39:41.167Z,100392.19
2022-12-07T19:42:09.200Z,100391.00
2022-12-07T19:44:37.530Z,100396.03
2022-12-07T19:47:07.352Z,100396.25
2022-12-07T19:49:36.888Z,100393.03
2022-12-07T19:52:06.573Z,100388.19
2022-12-07T19:54:36.347Z,100393.50
2022-12-07T19:57:05.571Z,100387.44
2022-12-07T19:59:34.109Z,100393.94
2022-12-07T20:02:02.180Z,100383.47
2022-12-07T20:04:35.333Z,100378.41
2022-12-07T20:07:03.384Z,100372.94
2022-12-07T20:09:31.532Z,100377.38
2022-12-07T20:12:16.948Z,100377.59
2022-12-07T20:14:45.243Z,100373.44
2022-12-07T20:17:13.412Z,100380.31
2022-12-07T20:19:43.227Z,100370.25
2022-12-07T20:22:11.231Z,100372.69
2022-12-07T20:24:39.548Z,100370.31
2022-12-07T20:27:07.937Z,100365.84
2022-12-07T20:29:36.217Z,100362.63
2022-12-07T20:32:04.552Z,100364.63
2022-12-07T20:34:32.827Z,100365.03
2022-12-07T20:37:02.160Z,100374.34
2022-12-07T20:39:30.775Z,100373.16
2022-12-07T20:42:16.557Z,100377.16
2022-12-07T20:44:44.883Z,100371.50
2022-12-07T20:47:12.912Z,100379.38
2022-12-07T20:49:41.564Z,100376.72
2022-12-07T20:52:11.240Z,100380.00
2022-12-07T20:54:39.470Z,100373.53
2022-12-07T20:57:07.559Z,100378.56
2022-12-07T20:59:41.232Z,100374.72
2022-12-07T21:02:12.625Z,100373.94
2022-12-07T21:04:41.522Z,100364.00
2022-12-07T21:07:10.808Z,100356.34
2022-12-07T21:09:39.264Z,100351.84
2022-12-07T21:12:11.170Z,100347.63
2022-12-07T21:14:42.419Z,100348.41
2022-12-07T21:17:10.958Z,100335.50
2022-12-07T21:19:39.376Z,100338.72
2022-12-07T21:22:07.400Z,100342.38
2022-12-07T21:24:38.868Z,100335.94
2022-12-07T21:27:07.185Z,100344.56
2022-12-07T21:29:43.891Z,100337.47
2022-12-07T21:32:13.729Z,100334.63
2022-12-07T21:34:42.041Z,100334.63
2022-12-07T21:37:10.031Z,100337.09
2022-12-07T21:39:39.575Z,100334.06
2022-12-07T21:42:07.627Z,100331.66
2022-12-07T21:44:35.877Z,100326.19
2022-12-07T21:47:03.880Z,100324.56
2022-12-07T21:49:35.297Z,100325.81
2022-12-07T21:52:03.316Z,100326.06
2022-12-07T21:54:31.591Z,100318.19
2022-12-07T21:57:00.840Z,100325.47
2022-12-07T21:59:29.129Z,100322.72
2022-12-07T22:01:57.140Z,100319.06
2022-12-07T22:04:26.931Z,100317.47
2022-12-07T22:06:56.977Z,100312.22
2022-12-07T22:09:27.518Z,100313.44
2022-12-07T22:11:55.485Z,100311.22
2022-12-07T22:14:42.848Z,100306.97
2022-12-07T22:17:10.810Z,100307.38
2022-12-07T22:19:38.942Z,100304.75
2022-12-07T22:22:06.825Z,100306.97
2022-12-07T22:24:35.151Z,100308.56
2022-12-07T22:27:03.051Z,100313.66
2022-12-07T22:29:32.701Z,100310.59
2022-12-07T22:32:09.280Z,100300.69
2022-12-07T22:34:46.924Z,100301.28
2022-12-07T22:37:14.925Z,100296.84
2022-12-07T22:39:43.059Z,100292.41
2022-12-07T22:42:11.205Z,100294.00
2022-12-07T22:44:43.030Z,100290.34
2022-12-07T22:47:10.954Z,100278.25
2022-12-07T22:49:39.224Z,100282.31
2022-12-07T22:52:07.154Z,100278.56
2022-12-07T22:54:35.767Z,100278.34
2022-12-07T22:57:04.551Z,100276.31
2022-12-07T22:59:32.900Z,100276.75
2022-12-07T23:02:02.169Z,100284.41
2022-12-07T23:04:30.454Z,100278.38
2022-12-07T23:06:59.305Z,100277.81
2022-12-07T23:09:27.605Z,100278.06
2022-12-07T23:12:13.061Z,100273.25
2022-12-07T23:14:41.255Z,100271.88
2022-12-07T23:17:10.507Z,100274.91
2022-12-07T23:19:38.706Z,100264.84
2022-12-07T23:22:06.631Z,100262.84
2022-12-07T23:24:34.834Z,100263.66
2022-12-07T23:27:02.931Z,100257.56
2022-12-07T23:29:31.068Z,100253.75
2022-12-07T23:31:59.126Z,100255.38
2022-12-07T23:34:28.785Z,100252.75
2022-12-07T23:36:56.737Z,100261.78
2022-12-07T23:39:24.870Z,100260.41
2022-12-07T23:41:52.917Z,100255.59
2022-12-07T23:44:21.085Z,100270.50
2022-12-07T23:46:49.128Z,100258.41
2022-12-07T23:49:18.482Z,100257.59
2022-12-07T23:51:47.714Z,100246.91
2022-12-07T23:54:15.890Z,100253.91
2022-12-07T23:56:44.021Z,100250.69
2022-12-07T23:59:12.837Z,100250.31
